ADDS METAR Data INFO
IDs: Format: Raw Decoded Include TAF

Data at: 2044 UTC 16 Dec 2017

KGKT 162035Z AUTO VRB06KT 10SM CLR 10/M02 A3020 RMK A01
KGKT 162015Z AUTO 30004KT 10SM CLR 10/M02 A3020 RMK A01
KGKT 161955Z AUTO 33006KT 10SM CLR 09/M02 A3020 RMK A01
KGKT 161935Z AUTO 29005KT 10SM CLR 10/M02 A3020 RMK A01
KGKT 161915Z AUTO 31003KT 10SM CLR 09/M03 A3020 RMK A01
KGKT 161855Z AUTO 33007KT 10SM CLR 09/M03 A3022 RMK A01
KGKT 161835Z AUTO VRB04G10KT 10SM CLR 09/M03 A3022 RMK A01
KGKT 161815Z AUTO 31005KT 10SM CLR 09/M03 A3022 RMK A01
KGKT 161755Z AUTO 00000KT 10SM CLR 07/M04 A3024 RMK A01
KGKT 161735Z AUTO VRB03KT 10SM CLR 06/M04 A3024 RMK A01
KGKT 161715Z AUTO 00000KT 10SM CLR 05/M04 A3026 RMK A01
KGKT 161655Z AUTO 00000KT 10SM CLR 04/M04 A3026 RMK A01
KGKT 161635Z AUTO 00000KT 10SM CLR 03/M04 A3028 RMK A01
KGKT 161615Z AUTO 00000KT 10SM CLR 03/M05 A3029 RMK A01
KGKT 161555Z AUTO 00000KT 10SM CLR 02/M04 A3029 RMK A01
KGKT 161535Z AUTO 00000KT 10SM CLR 00/M04 A3029 RMK A01
KGKT 161515Z AUTO 00000KT 10SM CLR M00/M04 A3029 RMK A01
KGKT 161455Z AUTO 00000KT 10SM CLR M01/M05 A3029 RMK A01
KGKT 161435Z AUTO 00000KT 10SM CLR M02/M05 A3028 RMK A01
KGKT 161415Z AUTO 00000KT 10SM CLR M03/M05 A3027 RMK A01
KGKT 161355Z AUTO 00000KT 9SM CLR M05/M06 A3027 RMK A01
KGKT 161335Z AUTO 00000KT 9SM CLR M05/M07 A3027 RMK A01
KGKT 161315Z AUTO 00000KT 7SM CLR M06/M07 A3027 RMK A01
KGKT 161255Z AUTO 00000KT 8SM CLR M06/M07 A3027 RMK A01
KGKT 161235Z AUTO 00000KT 8SM FEW037 M07/M07 A3027 RMK A01
KGKT 161215Z AUTO 00000KT 9SM OVC038 M06/M07 A3026 RMK A01
KGKT 161155Z AUTO 00000KT 10SM OVC037 M06/M07 A3026 RMK A01
KGKT 161135Z AUTO 00000KT 10SM OVC038 M06/M07 A3025 RMK A01
KGKT 161115Z AUTO 00000KT 8SM OVC037 M06/M07 A3024 RMK A01
KGKT 161055Z AUTO 00000KT 10SM OVC036 M06/M07 A3023 RMK A01
KGKT 161035Z AUTO 00000KT 10SM OVC037 M06/M07 A3023 RMK A01
KGKT 161015Z AUTO 00000KT 10SM OVC038 M06/M07 A3023 RMK A01
KGKT 160955Z AUTO 00000KT 10SM OVC038 M06/M07 A3022 RMK A01
KGKT 160935Z AUTO 00000KT 10SM BKN041 M05/M07 A3023 RMK A01
KGKT 160915Z AUTO 00000KT 10SM SCT042 M05/M06 A3023 RMK A01
KGKT 160855Z AUTO 00000KT 10SM SCT042 M05/M06 A3024 RMK A01
KGKT 160835Z AUTO 00000KT 10SM BKN043 M05/M06 A3024 RMK A01
KGKT 160815Z AUTO 00000KT 10SM OVC042 M05/M06 A3024 RMK A01
KGKT 160755Z AUTO 00000KT 10SM BKN039 OVC045 M05/M06 A3024 RMK A01
KGKT 160735Z AUTO 00000KT 10SM FEW038 OVC045 M05/M06 A3024 RMK A01
KGKT 160715Z AUTO 00000KT 10SM OVC045 M04/M06 A3023 RMK A01
KGKT 160655Z AUTO 00000KT 10SM OVC044 M04/M06 A3023 RMK A01
KGKT 160635Z AUTO 00000KT 10SM OVC046 M04/M06 A3022 RMK A01
KGKT 160615Z AUTO 00000KT 10SM OVC045 M04/M06 A3022 RMK A01
KGKT 160555Z AUTO 00000KT 10SM OVC046 M04/M06 A3022 RMK A01
KGKT 160535Z AUTO 00000KT 10SM OVC045 M04/M06 A3022 RMK A01
KGKT 160515Z AUTO 00000KT 10SM OVC045 M04/M05 A3023 RMK A01
KGKT 160455Z AUTO 00000KT 10SM OVC044 M03/M05 A3023 RMK A01
KGKT 160435Z AUTO 00000KT 10SM OVC044 M03/M05 A3023 RMK A01
KGKT 160415Z AUTO 00000KT 10SM OVC044 M03/M05 A3023 RMK A01
KGKT 160355Z AUTO 00000KT 10SM OVC045 M03/M05 A3024 RMK A01
KGKT 160335Z AUTO 00000KT 10SM OVC045 M03/M05 A3024 RMK A01
KGKT 160315Z AUTO 00000KT 10SM FEW035 OVC046 M03/M06 A3022 RMK A01
KGKT 160255Z AUTO 00000KT 10SM FEW035 BKN045 M03/M05 A3022 RMK A01
KGKT 160235Z AUTO 00000KT 10SM CLR M03/M06 A3021 RMK A01
KGKT 160215Z AUTO 19003KT 10SM FEW044 M02/M05 A3020 RMK A01
KGKT 160155Z AUTO 00000KT 10SM FEW044 M02/M06 A3020 RMK A01
KGKT 160135Z AUTO 20003KT 10SM CLR M02/M05 A3019 RMK A01
KGKT 160115Z AUTO 22005KT 10SM CLR M01/M05 A3019 RMK A01
KGKT 160055Z AUTO 22005KT 10SM CLR M01/M05 A3018 RMK A01
KGKT 160035Z AUTO 22005KT 10SM CLR M01/M05 A3017 RMK A01
KGKT 160015Z AUTO 22005KT 10SM FEW039 M01/M05 A3017 RMK A01
KGKT 152355Z AUTO 22004KT 10SM SCT036 M01/M05 A3017 RMK A01
KGKT 152335Z AUTO 22004KT 10SM OVC037 M00/M05 A3016 RMK A01
KGKT 152315Z AUTO VRB04KT 10SM OVC038 00/M05 A3015 RMK A01
KGKT 152255Z AUTO 24003KT 10SM OVC038 01/M05 A3014 RMK A01
KGKT 152235Z AUTO 23006KT 10SM BKN038 01/M05 A3012 RMK A01
KGKT 152215Z AUTO 23006G13KT 10SM OVC038 01/M05 A3012 RMK A01
KGKT 152155Z AUTO 23006KT 10SM OVC037 01/M05 A3011 RMK A01
KGKT 152135Z AUTO 23007KT 10SM OVC037 02/M05 A3011 RMK A01
KGKT 152115Z AUTO 26007KT 10SM BKN036 02/M05 A3010 RMK A01
KGKT 152055Z AUTO 26008G15KT 10SM OVC036 02/M05 A3010 RMK A01
KGKT 152035Z AUTO 26008KT 10SM OVC034 02/M05 A3008 RMK A01
KGKT 152015Z AUTO 25008G13KT 10SM OVC034 02/M05 A3008 RMK A01
KGKT 151955Z AUTO 24007G15KT 10SM OVC033 02/M04 A3008 RMK A01
KGKT 151935Z AUTO 23008KT 10SM SCT026 OVC032 02/M04 A3007 RMK A01
KGKT 151915Z AUTO 23008KT 10SM OVC028 02/M04 A3008 RMK A01
KGKT 151855Z AUTO 26005KT 10SM BKN027 OVC033 02/M04 A3008 RMK A01
KGKT 151835Z AUTO 26006KT 10SM SCT026 OVC032 02/M03 A3008 RMK A01
KGKT 151815Z AUTO VRB06G11KT 10SM OVC032 01/M03 A3008 RMK A01
KGKT 151755Z AUTO 26005G12KT 10SM OVC031 01/M03 A3008 RMK A01
KGKT 151735Z AUTO 24006KT 10SM FEW024 OVC031 02/M03 A3009 RMK A01
KGKT 151715Z AUTO 26007KT 10SM OVC031 02/M03 A3010 RMK A01
KGKT 151655Z AUTO 26007KT 10SM OVC030 01/M03 A3009 RMK A01
KGKT 151635Z AUTO 25006KT 10SM OVC030 02/M03 A3009 RMK A01
KGKT 151615Z AUTO VRB06KT 10SM OVC030 01/M03 A3008 RMK A01
KGKT 151555Z AUTO 30004KT 10SM OVC030 01/M03 A3008 RMK A01
KGKT 151535Z AUTO 00000KT 10SM OVC029 01/M02 A3007 RMK A01
KGKT 151515Z AUTO 00000KT 10SM OVC029 00/M02 A3007 RMK A01
KGKT 151455Z AUTO 00000KT 10SM OVC030 M00/M02 A3006 RMK A01
KGKT 151435Z AUTO 00000KT 10SM OVC030 M01/M02 A3005 RMK A01
KGKT 151415Z AUTO 00000KT 10SM OVC030 M01/M03 A3005 RMK A01
KGKT 151355Z AUTO 00000KT 10SM BKN030 M02/M03 A3004 RMK A01
KGKT 151335Z AUTO 00000KT 9SM FEW030 M03/M04 A3003 RMK A01
KGKT 151315Z AUTO 00000KT 9SM FEW030 M04/M04 A3003 RMK A01
KGKT 151255Z AUTO 00000KT 10SM FEW029 FEW040 M04/M05 A3002 RMK A01
KGKT 151235Z AUTO 00000KT 9SM FEW037 SCT043 M04/M05 A3001 RMK A01
KGKT 151215Z AUTO 00000KT 10SM BKN034 OVC040 M04/M05 A3001 RMK A01
KGKT 151155Z AUTO 00000KT 10SM OVC034 M04/M05 A3001 RMK A01
KGKT 151135Z AUTO 00000KT 10SM OVC038 M04/M05 A3000 RMK A01
KGKT 151115Z AUTO 00000KT 10SM OVC040 M04/M04 A3001 RMK A01
KGKT 151055Z AUTO 00000KT 9SM OVC042 M04/M04 A3001 RMK A01
KGKT 151035Z AUTO 00000KT 10SM OVC041 M04/M04 A3001 RMK A01
KGKT 151015Z AUTO 00000KT 10SM OVC040 M04/M04 A3001 RMK A01
KGKT 150955Z AUTO 00000KT 10SM OVC040 M04/M04 A3000 RMK A01
KGKT 150935Z AUTO 00000KT 10SM OVC039 M03/M04 A3001 RMK A01
KGKT 150915Z AUTO 00000KT 10SM OVC038 M03/M04 A3001 RMK A01
KGKT 150855Z AUTO 00000KT 10SM BKN038 BKN044 M03/M04 A3002 RMK A01